Banjul, Gambia

11:51 AM GMT on February 09, 2016 (GMT +0000)
Banjul International | | Change Station
CLOSE
Current Station
Airport
Location: Banjul,
Elevation: 95 ft
Nearby Weather Stations

Elev 95 ft 13.34 °N, 16.65 °W | Updated 51 minutes ago

Clear
Clear
86 °F
Feels Like 86 °F
N
13
Wind Variable Wind from East

Today
High -- | Low -- °F
--% Chance of Precip.
Yesterday
High -- | Low -- °F
Precip. -- in
Pressure 29.98 in
Visibility 5.6 miles
Clouds
Dew Point 36 °F
Humidity 17%
Rainfall 0.00 in
Snow Depth Not available.
7:31 AM 7:10 PM
New Moon, 1% visible
METAR GBYD 091100Z 10011KT 9000 NSC 30/02 Q1015
Pressure 29.98 in
Visibility 5.6 miles
Clouds
Dew Point 36 °F
Humidity 17%
Rainfall 0.00 in
Snow Depth Not available.
7:31 AM 7:10 PM
New Moon, 1% visible
METAR GBYD 091100Z 10011KT 9000 NSC 30/02 Q1015

10-Day Weather Forecast

No radar image for this location.
×

Almanac

Astronomy

Feb. 09, 2016 Rise Set
Actual Time
Civil Twilight
Nautical Twilight
Astronomical Twilight
Moon
Length of Visible Light
Length of Day
Tomorrow will be .
, % of the Moon is Illuminated

Today's Extremes

Country Highs Country Lows

Community

WunderPhotos

Upload Photos

1,891,565 photos uploaded!

WunderBlog® & News

Nearby

Air Quality

  Air Quality AQ Index Pollutant
Not available.

Snow Depth

Station Depth Elevation

Earthquake Activity

City Distance Mag. Time & Date
Minimum magnitude displayed is 2.5.

Coastal Water Temperatures

Place Temperature

Stations

Nearby Weather Stations

Station Location Temp. Windchill Dew Point Humidity Wind Precip. Elev Updated Type